createdAt,value
2016-11-07T00:00:22.335Z,0
2016-11-07T00:01:32.652Z,0
2016-11-07T00:02:42.320Z,0
2016-11-07T00:03:52.300Z,0
2016-11-07T00:05:02.273Z,0
2016-11-07T00:06:12.244Z,0
2016-11-07T00:07:21.891Z,0
2016-11-07T00:08:32.204Z,0
2016-11-07T00:09:42.185Z,0
2016-11-07T00:10:52.466Z,0
2016-11-07T00:12:02.442Z,0
2016-11-07T00:13:12.714Z,0
2016-11-07T00:14:22.725Z,0
2016-11-07T00:15:32.683Z,0
2016-11-07T00:16:42.345Z,0
2016-11-07T00:17:52.336Z,0
2016-11-07T00:19:02.646Z,0
2016-11-07T00:20:11.999Z,0
2016-11-07T00:21:21.653Z,0
2016-11-07T00:22:31.937Z,0
2016-11-07T00:23:41.908Z,0
2016-11-07T00:24:51.876Z,0
2016-11-07T00:26:01.852Z,0
2016-11-07T00:27:12.143Z,0
2016-11-07T00:28:22.456Z,0
2016-11-07T00:29:32.742Z,0
2016-11-07T00:30:43.031Z,0
2016-11-07T00:31:53.015Z,0
2016-11-07T00:33:02.696Z,0
2016-11-07T00:34:12.967Z,0
2016-11-07T00:35:22.634Z,0
2016-11-07T00:36:32.281Z,0
2016-11-07T00:37:41.663Z,0
2016-11-07T00:38:51.945Z,0
2016-11-07T00:40:02.228Z,0
2016-11-07T00:41:12.192Z,0
2016-11-07T00:42:22.474Z,0
2016-11-07T00:43:32.487Z,0
2016-11-07T00:44:42.459Z,0
2016-11-07T00:45:52.112Z,0
2016-11-07T00:47:02.388Z,0
2016-11-07T00:48:12.673Z,0
2016-11-07T00:49:23.006Z,0
2016-11-07T00:50:32.657Z,0
2016-11-07T00:51:42.623Z,0
2016-11-07T00:52:52.904Z,0
2016-11-07T00:54:03.178Z,0
2016-11-07T00:55:13.144Z,0
2016-11-07T00:56:23.121Z,0
2016-11-07T00:57:33.401Z,0
2016-11-07T00:58:43.360Z,0
2016-11-07T00:59:53.326Z,0
2016-11-07T01:01:03.309Z,0
2016-11-07T01:02:13.588Z,0
2016-11-07T01:03:23.555Z,0
2016-11-07T01:04:33.557Z,0
2016-11-07T01:05:43.850Z,0
2016-11-07T01:06:54.120Z,0
2016-11-07T01:08:04.102Z,0
2016-11-07T01:09:13.769Z,0
2016-11-07T01:10:24.052Z,0
2016-11-07T01:11:34.342Z,0
2016-11-07T01:12:44.323Z,0
2016-11-07T01:13:53.995Z,0
2016-11-07T01:15:03.967Z,0
2016-11-07T01:16:13.933Z,0
2016-11-07T01:17:23.926Z,0
2016-11-07T01:18:33.918Z,0
2016-11-07T01:19:43.593Z,0
2016-11-07T01:20:53.552Z,0
2016-11-07T01:22:03.523Z,0
2016-11-07T01:23:13.810Z,0
2016-11-07T01:24:23.775Z,0
2016-11-07T01:25:33.772Z,0
2016-11-07T01:26:44.054Z,0
2016-11-07T01:27:54.347Z,0
2016-11-07T01:29:04.357Z,0
2016-11-07T01:30:14.329Z,0
2016-11-07T01:31:23.989Z,0
2016-11-07T01:32:33.957Z,0
2016-11-07T01:33:43.656Z,0
2016-11-07T01:34:53.948Z,0
2016-11-07T01:36:03.612Z,0
2016-11-07T01:37:13.896Z,0
2016-11-07T01:38:23.860Z,0
2016-11-07T01:39:33.522Z,0
2016-11-07T01:40:43.824Z,0
2016-11-07T01:41:54.143Z,0
2016-11-07T01:43:03.804Z,0
2016-11-07T01:44:14.084Z,0
2016-11-07T01:45:24.085Z,0
2016-11-07T01:46:33.747Z,0
2016-11-07T01:47:43.408Z,0
2016-11-07T01:48:53.381Z,0
2016-11-07T01:50:03.667Z,0
2016-11-07T01:51:13.338Z,0
2016-11-07T01:52:23.310Z,0
2016-11-07T01:53:33.587Z,0
2016-11-07T01:54:43.855Z,0
2016-11-07T01:55:53.820Z,0
2016-11-07T01:57:03.483Z,0
2016-11-07T01:58:13.153Z,0
2016-11-07T01:59:23.427Z,0
2016-11-07T02:00:33.722Z,0
2016-11-07T02:01:43.397Z,0
2016-11-07T02:02:53.095Z,0
2016-11-07T02:04:03.067Z,0
2016-11-07T02:05:13.039Z,0
2016-11-07T02:06:23.006Z,0
2016-11-07T02:07:33.288Z,0
2016-11-07T02:08:43.556Z,0
2016-11-07T02:09:54.066Z,0
2016-11-07T02:11:04.048Z,0
2016-11-07T02:12:13.710Z,0
2016-11-07T02:13:23.699Z,0
2016-11-07T02:14:33.058Z,0
2016-11-07T02:15:43.329Z,0
2016-11-07T02:16:53.612Z,0
2016-11-07T02:18:03.897Z,0
2016-11-07T02:19:13.895Z,0
2016-11-07T02:20:23.872Z,0
2016-11-07T02:21:33.837Z,0
2016-11-07T02:22:43.215Z,0
2016-11-07T02:23:53.233Z,0
2016-11-07T02:25:03.533Z,0
2016-11-07T02:26:13.527Z,0
2016-11-07T02:27:23.812Z,0
2016-11-07T02:28:34.126Z,0
2016-11-07T02:29:44.098Z,0
2016-11-07T02:30:54.372Z,0
2016-11-07T02:32:04.373Z,0
2016-11-07T02:33:14.385Z,0
2016-11-07T02:34:24.057Z,0
2016-11-07T02:35:34.338Z,0
2016-11-07T02:36:44.312Z,0
2016-11-07T02:37:54.596Z,0
2016-11-07T02:39:04.909Z,0
2016-11-07T02:40:14.886Z,0
2016-11-07T02:41:25.172Z,0
2016-11-07T02:42:35.440Z,0
2016-11-07T02:43:45.412Z,0
2016-11-07T02:44:55.685Z,0
2016-11-07T02:46:05.960Z,0
2016-11-07T02:47:16.235Z,0
2016-11-07T02:48:25.577Z,0
2016-11-07T02:49:35.853Z,0
2016-11-07T02:50:46.130Z,0
2016-11-07T02:51:56.423Z,0
2016-11-07T02:53:06.413Z,0
2016-11-07T02:54:16.416Z,0
2016-11-07T02:55:26.077Z,0
2016-11-07T02:56:36.045Z,0
2016-11-07T02:57:46.055Z,0
2016-11-07T02:58:56.067Z,0
2016-11-07T03:00:06.049Z,0
2016-11-07T03:32:04.863Z,0
2016-11-07T03:33:14.537Z,0
2016-11-07T03:34:24.824Z,0
2016-11-07T03:35:35.095Z,0
2016-11-07T03:36:45.064Z,0
2016-11-07T03:37:55.035Z,0
2016-11-07T03:39:05.316Z,0
2016-11-07T03:40:15.289Z,0
2016-11-07T03:41:24.639Z,0
2016-11-07T03:42:34.934Z,0
2016-11-07T03:43:44.897Z,0
2016-11-07T03:44:55.165Z,0
2016-11-07T03:46:05.466Z,0
2016-11-07T03:47:15.751Z,0
2016-11-07T03:48:25.440Z,0
2016-11-07T03:49:35.717Z,0
2016-11-07T03:50:45.387Z,0
2016-11-07T03:51:55.363Z,0
2016-11-07T03:53:05.638Z,0
2016-11-07T03:54:15.928Z,0
2016-11-07T03:55:26.209Z,0
2016-11-07T03:56:36.485Z,0
2016-11-07T03:57:46.449Z,0
2016-11-07T03:58:56.725Z,0
2016-11-07T04:00:06.391Z,0
2016-11-07T04:01:16.662Z,0
2016-11-07T04:02:26.664Z,0
2016-11-07T04:03:36.350Z,0
2016-11-07T04:04:46.048Z,0
2016-11-07T04:05:56.014Z,0
2016-11-07T04:07:06.288Z,0
2016-11-07T04:08:16.570Z,0
2016-11-07T04:09:26.541Z,0
2016-11-07T04:10:36.821Z,0
2016-11-07T04:11:47.090Z,0
2016-11-07T04:12:56.764Z,0
2016-11-07T04:14:06.745Z,0
2016-11-07T04:15:16.743Z,0
2016-11-07T04:16:26.431Z,0
2016-11-07T04:17:36.714Z,0
2016-11-07T04:18:46.992Z,0
2016-11-07T04:19:56.980Z,0
2016-11-07T04:21:07.258Z,0
2016-11-07T04:22:16.950Z,0
2016-11-07T04:23:26.621Z,0
2016-11-07T04:24:36.593Z,0
2016-11-07T04:25:46.563Z,0
2016-11-07T04:26:56.221Z,0
2016-11-07T04:28:05.897Z,0
2016-11-07T04:29:16.198Z,0
2016-11-07T04:30:26.201Z,0
2016-11-07T04:31:36.181Z,0
2016-11-07T04:32:46.459Z,0
2016-11-07T04:33:56.128Z,0
2016-11-07T04:35:05.476Z,0
2016-11-07T04:36:15.458Z,0
2016-11-07T04:37:25.107Z,0
2016-11-07T04:38:35.070Z,0
2016-11-07T04:39:44.734Z,0
2016-11-07T04:40:55.002Z,0
2016-11-07T04:42:05.297Z,0
2016-11-07T04:43:15.564Z,0
2016-11-07T04:44:25.536Z,0
2016-11-07T04:45:35.511Z,0
2016-11-07T04:46:45.513Z,0
2016-11-07T04:47:55.814Z,0
2016-11-07T04:49:05.784Z,0
2016-11-07T04:50:16.055Z,0
2016-11-07T04:51:26.015Z,0
2016-11-07T04:52:36.291Z,0
2016-11-07T04:53:45.949Z,0
2016-11-07T04:54:56.231Z,0
2016-11-07T04:56:06.192Z,0
2016-11-07T04:57:15.860Z,0
2016-11-07T04:58:25.220Z,0
2016-11-07T04:59:35.497Z,0
2016-11-07T05:00:45.455Z,0
2016-11-07T05:01:55.425Z,0
2016-11-07T05:03:05.712Z,0
2016-11-07T05:04:15.989Z,0
2016-11-07T05:05:25.646Z,0
2016-11-07T05:06:35.972Z,0
2016-11-07T05:07:46.245Z,0
2016-11-07T05:08:56.531Z,0
2016-11-07T05:10:06.507Z,0
2016-11-07T05:11:16.184Z,0
2016-11-07T05:12:26.461Z,0
2016-11-07T05:13:36.443Z,0
2016-11-07T05:14:46.754Z,0
2016-11-07T05:15:57.066Z,0
2016-11-07T05:17:07.335Z,0
2016-11-07T05:18:17.004Z,0
2016-11-07T05:19:27.022Z,0
2016-11-07T05:20:37.347Z,0
2016-11-07T05:21:47.683Z,0
2016-11-07T05:22:57.046Z,0
2016-11-07T05:24:07.026Z,0
2016-11-07T05:25:16.989Z,0
2016-11-07T05:26:26.657Z,0
2016-11-07T05:27:36.937Z,0
2016-11-07T05:28:46.614Z,0
2016-11-07T05:29:56.277Z,0
2016-11-07T05:31:06.262Z,0
2016-11-07T05:32:16.535Z,0
2016-11-07T05:33:26.811Z,0
2016-11-07T05:34:37.093Z,0
2016-11-07T05:35:47.388Z,0
2016-11-07T05:36:57.684Z,0
2016-11-07T05:38:07.968Z,0
2016-11-07T05:39:17.935Z,0
2016-11-07T05:40:28.210Z,0
2016-11-07T05:41:38.494Z,0
2016-11-07T05:42:48.775Z,0
2016-11-07T05:43:58.740Z,0
2016-11-07T05:45:09.027Z,0
2016-11-07T05:46:18.689Z,0
2016-11-07T05:47:28.644Z,5
2016-11-07T05:48:38.957Z,5
2016-11-07T05:49:48.310Z,5
2016-11-07T05:50:58.288Z,5
2016-11-07T05:52:08.575Z,5
2016-11-07T05:53:18.839Z,5
2016-11-07T05:54:29.127Z,5
2016-11-07T05:55:39.420Z,5
2016-11-07T05:56:49.399Z,10
2016-11-07T05:57:59.385Z,10
2016-11-07T05:59:09.033Z,10
2016-11-07T06:00:19.333Z,10
2016-11-07T06:01:29.661Z,10
2016-11-07T06:02:39.627Z,10
2016-11-07T06:03:49.597Z,10
2016-11-07T06:04:59.588Z,15
2016-11-07T06:06:09.877Z,15
2016-11-07T06:07:20.153Z,15
2016-11-07T06:08:30.441Z,20
2016-11-07T06:09:40.403Z,20
2016-11-07T06:10:50.689Z,20
2016-11-07T06:12:00.991Z,20
2016-11-07T06:13:11.270Z,20
2016-11-07T06:14:21.224Z,25
2016-11-07T06:15:31.512Z,25
2016-11-07T06:16:41.532Z,25
2016-11-07T06:17:51.214Z,25
2016-11-07T06:19:01.498Z,25
2016-11-07T06:20:10.883Z,25
2016-11-07T06:21:20.859Z,30
2016-11-07T06:22:30.864Z,30
2016-11-07T06:23:40.827Z,30
2016-11-07T06:24:50.804Z,30
2016-11-07T06:26:00.772Z,30
2016-11-07T06:27:11.053Z,30
2016-11-07T06:28:21.010Z,30
2016-11-07T06:29:30.976Z,35
2016-11-07T06:30:40.648Z,35
2016-11-07T06:31:50.623Z,35
2016-11-07T06:33:00.906Z,35
2016-11-07T06:34:11.179Z,35
2016-11-07T06:35:21.460Z,40
2016-11-07T06:36:31.480Z,40
2016-11-07T06:37:41.468Z,40
2016-11-07T06:38:51.444Z,40
2016-11-07T06:40:01.718Z,40
2016-11-07T06:41:12.003Z,45
2016-11-07T06:42:21.975Z,45
2016-11-07T06:43:32.281Z,45
2016-11-07T06:44:42.247Z,45
2016-11-07T06:45:52.516Z,45
2016-11-07T06:47:02.801Z,45
2016-11-07T06:48:13.067Z,45
2016-11-07T06:49:22.725Z,50
2016-11-07T06:50:32.708Z,50
2016-11-07T06:51:43.019Z,50
2016-11-07T06:52:53.314Z,55
2016-11-07T06:54:03.596Z,60
2016-11-07T06:55:13.883Z,60
2016-11-07T06:56:24.158Z,65
2016-11-07T06:57:34.123Z,75
2016-11-07T06:58:44.089Z,85
2016-11-07T06:59:53.759Z,85
2016-11-07T07:01:03.752Z,95
2016-11-07T07:02:13.725Z,100
2016-11-07T07:03:24.049Z,100
2016-11-07T07:04:34.016Z,105
2016-11-07T07:05:43.687Z,105
2016-11-07T07:06:53.967Z,110
2016-11-07T07:08:03.924Z,115
2016-11-07T07:09:13.884Z,115
2016-11-07T07:10:24.173Z,110
2016-11-07T07:11:34.145Z,115
2016-11-07T07:12:44.112Z,120
2016-11-07T07:13:54.081Z,125
2016-11-07T07:15:04.112Z,125
2016-11-07T07:16:13.779Z,125
2016-11-07T07:17:24.065Z,125
2016-11-07T07:18:34.367Z,125
2016-11-07T07:19:44.358Z,130
2016-11-07T07:20:54.367Z,135
2016-11-07T07:22:04.051Z,135
2016-11-07T07:23:13.719Z,135
2016-11-07T07:24:24.000Z,135
2016-11-07T07:25:33.693Z,135
2016-11-07T07:26:43.985Z,135
2016-11-07T07:27:53.941Z,140
2016-11-07T07:29:03.927Z,140
2016-11-07T07:30:13.894Z,145
2016-11-07T07:31:23.882Z,145
2016-11-07T07:32:33.856Z,150
2016-11-07T07:33:43.829Z,150
2016-11-07T07:34:53.796Z,155
2016-11-07T07:36:04.099Z,150
2016-11-07T07:37:13.774Z,150
2016-11-07T07:38:23.750Z,150
2016-11-07T07:39:33.761Z,140
2016-11-07T07:40:43.728Z,140
2016-11-07T07:41:54.011Z,135
2016-11-07T07:43:03.981Z,125
2016-11-07T07:44:13.645Z,115
2016-11-07T07:45:23.619Z,125
2016-11-07T07:46:33.956Z,125
2016-11-07T07:47:44.234Z,115
2016-11-07T07:48:54.511Z,135
2016-11-07T07:50:04.181Z,135
2016-11-07T07:51:14.199Z,120
2016-11-07T07:52:24.171Z,125
2016-11-07T07:53:34.511Z,170
2016-11-07T07:54:44.793Z,180
2016-11-07T07:55:54.762Z,175
2016-11-07T07:57:05.043Z,165
2016-11-07T07:58:15.338Z,165
2016-11-07T07:59:25.691Z,140
2016-11-07T08:00:35.978Z,140
2016-11-07T08:01:46.253Z,140
2016-11-07T08:02:56.536Z,135
2016-11-07T08:04:06.818Z,130
2016-11-07T08:05:16.821Z,130
2016-11-07T08:06:26.818Z,130
2016-11-07T08:07:36.479Z,130
2016-11-07T08:08:46.753Z,135
2016-11-07T08:09:57.041Z,135
2016-11-07T08:11:06.702Z,140
2016-11-07T08:12:16.978Z,145
2016-11-07T08:13:26.968Z,145
2016-11-07T08:14:36.938Z,155
2016-11-07T08:15:46.908Z,160
2016-11-07T08:16:57.201Z,155
2016-11-07T08:18:06.863Z,150
2016-11-07T08:19:16.543Z,150
2016-11-07T08:20:26.517Z,150
2016-11-07T08:21:36.503Z,155
2016-11-07T08:22:46.515Z,150
2016-11-07T08:23:56.190Z,150
2016-11-07T08:25:05.860Z,155
2016-11-07T08:26:15.512Z,150
2016-11-07T08:27:25.177Z,150
2016-11-07T08:28:35.508Z,155
2016-11-07T08:29:45.184Z,150
2016-11-07T08:30:54.866Z,150
2016-11-07T08:32:04.858Z,165
2016-11-07T08:33:14.210Z,155
2016-11-07T08:34:24.201Z,155
2016-11-07T08:35:33.568Z,155
2016-11-07T08:36:43.580Z,150
2016-11-07T08:37:53.237Z,145
2016-11-07T08:39:03.217Z,145
2016-11-07T08:40:13.499Z,145
2016-11-07T08:41:23.785Z,140
2016-11-07T08:42:33.748Z,140
2016-11-07T08:43:44.045Z,140
2016-11-07T08:44:54.020Z,140
2016-11-07T08:46:03.983Z,140
2016-11-07T08:47:13.973Z,145
2016-11-07T08:48:23.947Z,145
2016-11-07T08:49:34.233Z,145
2016-11-07T08:50:44.214Z,145
2016-11-07T08:51:54.219Z,145
2016-11-07T08:53:04.499Z,150
2016-11-07T08:54:14.475Z,150
2016-11-07T08:55:24.135Z,155
2016-11-07T08:56:33.792Z,155
2016-11-07T08:57:43.455Z,160
2016-11-07T08:58:53.448Z,165
2016-11-07T09:00:03.444Z,160
2016-11-07T09:01:13.725Z,160
2016-11-07T09:02:23.711Z,155
2016-11-07T09:03:33.678Z,150
2016-11-07T09:04:43.649Z,150
2016-11-07T09:05:53.996Z,145
2016-11-07T09:07:04.303Z,145
2016-11-07T09:08:14.575Z,140
2016-11-07T09:09:24.861Z,140
2016-11-07T09:10:35.149Z,140
2016-11-07T09:11:45.428Z,140
2016-11-07T09:12:55.407Z,145
2016-11-07T09:14:05.092Z,145
2016-11-07T09:15:15.070Z,145
2016-11-07T09:16:25.057Z,150
2016-11-07T09:17:35.028Z,145
2016-11-07T09:18:44.730Z,150
2016-11-07T09:19:54.400Z,150
2016-11-07T09:21:04.373Z,150
2016-11-07T09:22:14.646Z,145
2016-11-07T09:23:24.940Z,140
2016-11-07T09:24:34.629Z,135
2016-11-07T09:25:44.915Z,130
2016-11-07T09:26:54.891Z,130
2016-11-07T09:28:04.873Z,130
2016-11-07T09:29:14.890Z,135
2016-11-07T09:30:25.169Z,135
2016-11-07T09:31:35.470Z,135
2016-11-07T09:32:45.459Z,135
2016-11-07T09:33:55.427Z,140
2016-11-07T09:35:05.399Z,145
2016-11-07T09:36:15.389Z,210
2016-11-07T09:37:25.667Z,145
2016-11-07T09:38:35.673Z,150
2016-11-07T09:39:45.972Z,155
2016-11-07T09:40:56.256Z,150
2016-11-07T09:42:06.537Z,155
2016-11-07T09:43:16.816Z,155
2016-11-07T09:44:26.806Z,175
2016-11-07T09:45:36.782Z,250
2016-11-07T09:46:47.071Z,210
2016-11-07T09:47:57.053Z,195
2016-11-07T09:49:07.068Z,200
2016-11-07T09:50:17.365Z,260
2016-11-07T09:51:27.352Z,255
2016-11-07T09:52:37.030Z,230
2016-11-07T09:53:46.710Z,285
2016-11-07T09:54:56.392Z,300
2016-11-07T09:56:06.375Z,285
2016-11-07T09:57:16.385Z,260
2016-11-07T09:58:26.684Z,270
2016-11-07T09:59:36.659Z,275
2016-11-07T10:00:46.940Z,210
2016-11-07T10:01:56.343Z,240
2016-11-07T10:03:06.639Z,295
2016-11-07T10:04:16.926Z,305
2016-11-07T10:05:26.927Z,305
2016-11-07T10:06:37.214Z,270
2016-11-07T10:07:47.496Z,305
2016-11-07T10:08:57.788Z,285
2016-11-07T10:10:07.768Z,225
2016-11-07T10:11:18.055Z,180
2016-11-07T10:12:28.048Z,175
2016-11-07T10:13:38.021Z,175
2016-11-07T10:14:48.005Z,160
2016-11-07T10:15:58.326Z,155
2016-11-07T10:17:07.986Z,160
2016-11-07T10:18:18.315Z,165
2016-11-07T10:19:28.297Z,165
2016-11-07T10:20:38.279Z,165
2016-11-07T10:21:48.576Z,165
2016-11-07T10:22:58.903Z,175
2016-11-07T10:24:08.574Z,165
2016-11-07T10:25:18.865Z,170
2016-11-07T10:26:29.143Z,175
2016-11-07T10:27:39.134Z,180
2016-11-07T10:28:49.406Z,185
2016-11-07T10:29:59.388Z,190
2016-11-07T10:31:09.699Z,190
2016-11-07T10:32:18.736Z,180
2016-11-07T10:33:28.738Z,170
2016-11-07T10:34:39.014Z,165
2016-11-07T10:35:48.988Z,165
2016-11-07T10:36:58.705Z,155
2016-11-07T10:38:08.680Z,150
2016-11-07T10:39:18.957Z,140
2016-11-07T10:40:28.927Z,140
2016-11-07T10:41:38.910Z,150
2016-11-07T10:42:49.240Z,160
2016-11-07T10:43:59.522Z,165
2016-11-07T10:45:09.839Z,180
2016-11-07T10:46:20.132Z,175
2016-11-07T10:47:30.418Z,170
2016-11-07T10:48:40.711Z,175
2016-11-07T10:49:50.067Z,170
2016-11-07T10:51:00.362Z,165
2016-11-07T10:52:10.663Z,165
2016-11-07T10:53:20.016Z,160
2016-11-07T10:54:30.034Z,160
2016-11-07T10:55:40.359Z,155
2016-11-07T10:56:50.648Z,155
2016-11-07T10:58:00.933Z,145
2016-11-07T10:59:10.895Z,135
2016-11-07T11:00:20.866Z,130
2016-11-07T11:01:30.861Z,125
2016-11-07T11:02:40.524Z,120
2016-11-07T11:03:50.812Z,120
2016-11-07T11:05:01.103Z,120
2016-11-07T11:06:10.465Z,120
2016-11-07T11:07:20.757Z,120
2016-11-07T11:08:30.748Z,120
2016-11-07T11:09:40.715Z,120
2016-11-07T11:10:50.691Z,125
2016-11-07T11:12:00.987Z,125
2016-11-07T11:13:11.271Z,125
2016-11-07T11:14:21.261Z,125
2016-11-07T11:15:31.248Z,130
2016-11-07T11:16:41.527Z,130
2016-11-07T11:17:51.502Z,130
2016-11-07T11:19:01.169Z,130
2016-11-07T11:20:11.445Z,125
2016-11-07T11:21:21.408Z,125
2016-11-07T11:22:31.394Z,125
2016-11-07T11:23:41.060Z,125
2016-11-07T11:24:50.747Z,125
2016-11-07T11:26:01.029Z,125
2016-11-07T11:27:11.337Z,125
2016-11-07T11:28:21.002Z,125
2016-11-07T11:29:31.279Z,120
2016-11-07T11:30:40.949Z,120
2016-11-07T11:31:50.969Z,115
2016-11-07T11:33:00.948Z,110
2016-11-07T11:34:11.235Z,110
2016-11-07T11:35:21.507Z,105
2016-11-07T11:36:31.803Z,100
2016-11-07T11:37:42.116Z,95
2016-11-07T11:38:51.778Z,95
2016-11-07T11:40:01.787Z,90
2016-11-07T11:41:12.116Z,90
2016-11-07T11:42:21.778Z,90
2016-11-07T11:43:32.073Z,95
2016-11-07T11:44:42.357Z,95
2016-11-07T11:45:52.331Z,95
2016-11-07T11:47:02.315Z,100
2016-11-07T11:48:12.602Z,105
2016-11-07T11:49:22.581Z,110
2016-11-07T11:50:32.234Z,115
2016-11-07T11:51:41.916Z,115
2016-11-07T11:52:51.903Z,120
2016-11-07T11:54:02.191Z,115
2016-11-07T11:55:12.511Z,115
2016-11-07T11:56:22.807Z,110
2016-11-07T11:57:32.826Z,110
2016-11-07T11:58:43.115Z,110
2016-11-07T11:59:53.407Z,105
2016-11-07T12:01:03.714Z,105
2016-11-07T12:02:13.995Z,105
2016-11-07T12:03:24.288Z,105
2016-11-07T12:04:34.271Z,110
2016-11-07T12:05:44.542Z,110
2016-11-07T12:06:54.869Z,115
2016-11-07T12:08:04.893Z,120
2016-11-07T12:09:15.230Z,115
2016-11-07T12:10:25.523Z,115
2016-11-07T12:11:35.839Z,110
2016-11-07T12:12:46.151Z,110
2016-11-07T12:13:56.465Z,110
2016-11-07T12:15:06.148Z,110
2016-11-07T12:16:16.487Z,110
2016-11-07T12:17:26.807Z,110
2016-11-07T12:18:36.803Z,110
2016-11-07T12:19:46.806Z,110
2016-11-07T12:20:57.108Z,110
2016-11-07T12:22:07.424Z,115
2016-11-07T12:23:17.734Z,115
2016-11-07T12:24:28.100Z,110
2016-11-07T12:25:38.150Z,110
2016-11-07T12:26:48.244Z,105
2016-11-07T12:27:58.248Z,100
2016-11-07T12:29:08.598Z,100
2016-11-07T12:30:18.632Z,95
2016-11-07T12:31:28.985Z,95
2016-11-07T12:32:39.294Z,90
2016-11-07T12:33:48.991Z,90
2016-11-07T12:34:59.291Z,85
2016-11-07T12:36:11.015Z,85
2016-11-07T12:37:21.918Z,85
2016-11-07T12:38:33.799Z,85
2016-11-07T12:39:44.365Z,85
2016-11-07T12:40:55.005Z,85
2016-11-07T12:42:06.099Z,85
2016-11-07T12:43:16.599Z,85
2016-11-07T12:44:27.813Z,90
2016-11-07T12:45:39.022Z,85
2016-11-07T12:46:49.327Z,85
2016-11-07T12:47:59.092Z,80
2016-11-07T12:49:09.409Z,80
2016-11-07T12:50:19.437Z,80
2016-11-07T12:51:29.425Z,75
2016-11-07T12:52:39.717Z,70
2016-11-07T12:53:49.648Z,70
2016-11-07T12:54:59.666Z,65
2016-11-07T12:56:10.241Z,65
2016-11-07T12:57:20.231Z,65
2016-11-07T12:58:30.253Z,65
2016-11-07T12:59:40.563Z,65
2016-11-07T13:00:50.590Z,65
2016-11-07T13:02:01.344Z,60
2016-11-07T13:03:11.516Z,60
2016-11-07T13:04:21.555Z,60
2016-11-07T13:05:32.444Z,60
2016-11-07T13:06:42.839Z,60
2016-11-07T13:07:53.579Z,65
2016-11-07T13:09:04.112Z,65
2016-11-07T13:10:15.872Z,70
2016-11-07T13:11:26.602Z,65
2016-11-07T13:12:37.038Z,65
2016-11-07T13:13:48.258Z,60
2016-11-07T13:14:59.345Z,60
2016-11-07T13:16:12.077Z,60
2016-11-07T13:17:22.922Z,60
2016-11-07T13:18:34.778Z,60
2016-11-07T13:19:45.784Z,60
2016-11-07T13:20:57.377Z,60
2016-11-07T13:22:08.814Z,60
2016-11-07T13:23:19.009Z,65
2016-11-07T13:24:30.116Z,70
2016-11-07T13:25:42.185Z,75
2016-11-07T13:26:53.399Z,80
2016-11-07T13:28:04.651Z,85
2016-11-07T13:29:15.727Z,90
2016-11-07T13:30:26.161Z,90
2016-11-07T13:31:39.043Z,90
2016-11-07T13:32:50.060Z,85
2016-11-07T13:34:01.007Z,80
2016-11-07T13:35:11.538Z,80
2016-11-07T13:36:22.654Z,75
2016-11-07T13:37:34.209Z,75
2016-11-07T13:38:45.548Z,80
2016-11-07T13:39:56.407Z,80
2016-11-07T13:41:06.700Z,80
2016-11-07T13:42:17.558Z,80
2016-11-07T13:43:29.973Z,80
2016-11-07T13:44:40.824Z,80
2016-11-07T13:45:51.813Z,80
2016-11-07T13:47:01.777Z,75
2016-11-07T13:48:13.813Z,70
2016-11-07T13:49:24.800Z,60
2016-11-07T13:50:35.243Z,60
2016-11-07T13:51:46.304Z,60
2016-11-07T13:52:56.895Z,60
2016-11-07T13:54:09.085Z,60
2016-11-07T13:55:21.265Z,60
2016-11-07T13:56:34.217Z,60
2016-11-07T13:57:45.083Z,60
2016-11-07T13:58:55.256Z,60
2016-11-07T14:00:05.249Z,60
2016-11-07T14:01:15.237Z,55
2016-11-07T14:02:24.921Z,55
2016-11-07T14:03:34.914Z,50
2016-11-07T14:04:45.219Z,50
2016-11-07T14:05:55.191Z,50
2016-11-07T14:07:05.192Z,50
2016-11-07T14:08:15.185Z,50
2016-11-07T14:09:24.886Z,45
2016-11-07T14:10:34.899Z,45
2016-11-07T14:11:45.201Z,45
2016-11-07T14:12:55.489Z,45
2016-11-07T14:14:05.189Z,45
2016-11-07T14:15:15.179Z,45
2016-11-07T14:16:25.160Z,45
2016-11-07T14:17:35.165Z,45
2016-11-07T14:18:45.457Z,40
2016-11-07T14:19:55.756Z,40
2016-11-07T14:21:06.062Z,40
2016-11-07T14:22:16.031Z,40
2016-11-07T14:23:26.360Z,40
2016-11-07T14:24:36.675Z,40
2016-11-07T14:25:46.676Z,35
2016-11-07T14:26:56.967Z,35
2016-11-07T14:28:07.271Z,35
2016-11-07T14:29:17.244Z,35
2016-11-07T14:30:27.397Z,35
2016-11-07T14:31:37.690Z,30
2016-11-07T14:32:47.684Z,30
2016-11-07T14:33:58.018Z,30
2016-11-07T14:35:08.002Z,30
2016-11-07T14:36:17.691Z,25
2016-11-07T14:37:27.705Z,25
2016-11-07T14:38:38.002Z,25
2016-11-07T14:39:48.301Z,25
2016-11-07T14:40:58.596Z,25
2016-11-07T14:42:08.573Z,25
2016-11-07T14:43:18.888Z,25
2016-11-07T14:44:28.929Z,25
2016-11-07T14:45:39.223Z,20
2016-11-07T14:46:50.003Z,20
2016-11-07T14:48:00.298Z,20
2016-11-07T14:49:10.595Z,20
2016-11-07T14:50:20.262Z,20
2016-11-07T14:51:30.593Z,15
2016-11-07T14:52:40.282Z,15
2016-11-07T14:53:50.280Z,15
2016-11-07T14:55:00.255Z,15
2016-11-07T14:56:10.233Z,15
2016-11-07T14:57:20.215Z,15
2016-11-07T14:58:30.489Z,15
2016-11-07T14:59:40.472Z,10
2016-11-07T15:00:50.791Z,10
2016-11-07T15:02:00.763Z,10
2016-11-07T15:03:10.759Z,10
2016-11-07T15:04:20.806Z,10
2016-11-07T15:05:30.807Z,10
2016-11-07T15:06:40.803Z,10
2016-11-07T15:07:50.803Z,5
2016-11-07T15:09:01.093Z,5
2016-11-07T15:10:11.395Z,5
2016-11-07T15:11:21.076Z,5
2016-11-07T15:12:31.081Z,5
2016-11-07T15:13:41.108Z,5
2016-11-07T15:14:51.388Z,5
2016-11-07T15:16:00.786Z,5
2016-11-07T15:17:11.108Z,5
2016-11-07T15:18:21.404Z,5
2016-11-07T15:19:30.776Z,5
2016-11-07T15:20:41.063Z,0
2016-11-07T15:21:50.484Z,0
2016-11-07T15:23:00.778Z,0
2016-11-07T15:24:11.082Z,0
2016-11-07T15:25:21.081Z,0
2016-11-07T15:26:31.369Z,0
2016-11-07T15:27:40.719Z,0
2016-11-07T15:28:50.089Z,0
2016-11-07T15:30:00.088Z,0
2016-11-07T15:31:09.519Z,0
2016-11-07T15:32:19.820Z,0
2016-11-07T15:33:29.847Z,0
2016-11-07T15:34:39.864Z,0
2016-11-07T15:35:49.852Z,0
2016-11-07T15:36:59.825Z,0
2016-11-07T15:38:10.109Z,0
2016-11-07T15:39:19.776Z,0
2016-11-07T15:40:29.775Z,0
2016-11-07T15:41:40.038Z,0
2016-11-07T15:42:50.010Z,0
2016-11-07T15:44:00.441Z,0
2016-11-07T15:45:11.147Z,0
2016-11-07T15:46:21.123Z,0
2016-11-07T15:47:31.094Z,0
2016-11-07T15:48:41.412Z,0
2016-11-07T15:49:51.413Z,0
2016-11-07T15:51:01.438Z,0
2016-11-07T15:52:11.416Z,0
2016-11-07T15:53:21.707Z,0
2016-11-07T15:54:31.996Z,0
2016-11-07T15:55:41.967Z,0
2016-11-07T15:56:51.958Z,0
2016-11-07T15:58:01.988Z,0
2016-11-07T15:59:11.664Z,0
2016-11-07T16:00:21.386Z,0
2016-11-07T16:01:31.674Z,0
2016-11-07T16:02:41.029Z,0
2016-11-07T16:03:51.347Z,0
2016-11-07T16:05:01.637Z,0
2016-11-07T16:06:11.922Z,0
2016-11-07T16:07:22.231Z,0
2016-11-07T16:08:32.555Z,0
2016-11-07T16:09:42.851Z,0
2016-11-07T16:10:52.829Z,0
2016-11-07T16:12:03.118Z,0
2016-11-07T16:13:13.401Z,0
2016-11-07T16:14:23.705Z,0
2016-11-07T16:15:34.001Z,0
2016-11-07T16:16:43.989Z,0
2016-11-07T16:17:53.966Z,0
2016-11-07T16:19:03.638Z,0
2016-11-07T16:20:13.621Z,0
2016-11-07T16:21:23.618Z,0
2016-11-07T16:22:33.901Z,0
2016-11-07T16:23:43.582Z,0
2016-11-07T16:24:53.887Z,0
2016-11-07T16:26:03.881Z,0
2016-11-07T16:27:14.205Z,0
2016-11-07T16:28:24.231Z,0
2016-11-07T16:29:34.237Z,0
2016-11-07T16:30:43.914Z,0
2016-11-07T16:31:54.183Z,0
2016-11-07T16:33:04.176Z,0
2016-11-07T16:34:14.158Z,0
2016-11-07T16:35:24.461Z,0
2016-11-07T16:36:34.439Z,0
2016-11-07T16:37:44.430Z,0
2016-11-07T16:38:54.735Z,0
2016-11-07T16:40:04.433Z,0
2016-11-07T16:41:14.115Z,0
2016-11-07T16:42:24.132Z,0
2016-11-07T16:43:34.111Z,0
2016-11-07T16:44:44.409Z,0
2016-11-07T16:45:54.381Z,0
2016-11-07T16:47:04.043Z,0
2016-11-07T16:48:14.344Z,0
2016-11-07T16:49:24.317Z,0
2016-11-07T16:50:34.350Z,0
2016-11-07T16:51:44.344Z,0
2016-11-07T16:52:54.332Z,0
2016-11-07T16:54:04.323Z,0
2016-11-07T16:55:14.643Z,0
2016-11-07T16:56:24.944Z,0
2016-11-07T16:57:35.272Z,0
2016-11-07T16:58:45.269Z,0
2016-11-07T16:59:55.548Z,0
2016-11-07T17:01:05.529Z,0
2016-11-07T17:02:15.833Z,0
2016-11-07T17:03:26.162Z,0
2016-11-07T17:04:36.464Z,0
2016-11-07T17:05:46.140Z,0
2016-11-07T17:06:56.439Z,0
2016-11-07T17:08:06.428Z,0
2016-11-07T17:09:16.423Z,0
2016-11-07T17:10:26.727Z,0
2016-11-07T17:11:37.066Z,0
2016-11-07T17:12:47.412Z,0
2016-11-07T17:13:57.422Z,0
2016-11-07T17:15:07.396Z,0